sensor_id;sensor_type;location;lat;lon;timestamp;temperature;humidity
21047;DHT22;10682;50.874;3.656;2023-04-25T00:00:15;8.60;99.90
21047;DHT22;10682;50.874;3.656;2023-04-25T00:02:43;8.60;99.90
21047;DHT22;10682;50.874;3.656;2023-04-25T00:05:10;8.60;99.90
21047;DHT22;10682;50.874;3.656;2023-04-25T00:07:38;8.60;99.90
21047;DHT22;10682;50.874;3.656;2023-04-25T00:10:06;8.60;99.90
21047;DHT22;10682;50.874;3.656;2023-04-25T00:12:33;8.60;99.90
21047;DHT22;10682;50.874;3.656;2023-04-25T00:15:01;8.50;99.90
21047;DHT22;10682;50.874;3.656;2023-04-25T00:17:28;8.50;99.90
21047;DHT22;10682;50.874;3.656;2023-04-25T00:19:56;8.50;99.90
21047;DHT22;10682;50.874;3.656;2023-04-25T00:22:24;8.50;99.90
21047;DHT22;10682;50.874;3.656;2023-04-25T00:24:51;8.50;99.90
21047;DHT22;10682;50.874;3.656;2023-04-25T00:27:19;8.40;99.90
21047;DHT22;10682;50.874;3.656;2023-04-25T00:29:46;8.40;99.90
21047;DHT22;10682;50.874;3.656;2023-04-25T00:32:14;8.40;99.90
21047;DHT22;10682;50.874;3.656;2023-04-25T00:34:41;8.40;99.90
21047;DHT22;10682;50.874;3.656;2023-04-25T00:37:08;8.40;99.90
21047;DHT22;10682;50.874;3.656;2023-04-25T00:39:35;8.40;99.90
21047;DHT22;10682;50.874;3.656;2023-04-25T00:42:02;8.40;99.90
21047;DHT22;10682;50.874;3.656;2023-04-25T00:44:33;8.30;99.90
21047;DHT22;10682;50.874;3.656;2023-04-25T00:47:02;8.40;99.90
21047;DHT22;10682;50.874;3.656;2023-04-25T00:49:30;8.30;99.90
21047;DHT22;10682;50.874;3.656;2023-04-25T00:51:57;8.30;99.90
21047;DHT22;10682;50.874;3.656;2023-04-25T00:54:24;8.30;99.90
21047;DHT22;10682;50.874;3.656;2023-04-25T00:56:52;8.30;99.90
21047;DHT22;10682;50.874;3.656;2023-04-25T00:59:19;8.30;99.90
21047;DHT22;10682;50.874;3.656;2023-04-25T01:01:47;8.30;99.90
21047;DHT22;10682;50.874;3.656;2023-04-25T01:04:14;8.30;99.90
21047;DHT22;10682;50.874;3.656;2023-04-25T01:06:41;8.30;99.90
21047;DHT22;10682;50.874;3.656;2023-04-25T01:09:09;8.20;99.90
21047;DHT22;10682;50.874;3.656;2023-04-25T01:11:36;8.30;99.90
21047;DHT22;10682;50.874;3.656;2023-04-25T01:14:03;8.20;99.90
21047;DHT22;10682;50.874;3.656;2023-04-25T01:16:30;8.20;99.90
21047;DHT22;10682;50.874;3.656;2023-04-25T01:18:58;8.20;99.90
21047;DHT22;10682;50.874;3.656;2023-04-25T01:21:26;8.20;99.90
21047;DHT22;10682;50.874;3.656;2023-04-25T01:23:54;8.20;99.90
21047;DHT22;10682;50.874;3.656;2023-04-25T01:26:22;8.20;99.90
21047;DHT22;10682;50.874;3.656;2023-04-25T01:28:50;8.20;99.90
21047;DHT22;10682;50.874;3.656;2023-04-25T01:31:18;8.20;99.90
21047;DHT22;10682;50.874;3.656;2023-04-25T01:33:47;8.20;99.90
21047;DHT22;10682;50.874;3.656;2023-04-25T01:36:15;8.20;99.90
21047;DHT22;10682;50.874;3.656;2023-04-25T01:38:42;8.20;99.90
21047;DHT22;10682;50.874;3.656;2023-04-25T01:41:10;8.20;99.90
21047;DHT22;10682;50.874;3.656;2023-04-25T01:43:37;8.10;99.90
21047;DHT22;10682;50.874;3.656;2023-04-25T01:46:05;8.10;99.90
21047;DHT22;10682;50.874;3.656;2023-04-25T01:48:32;8.10;99.90
21047;DHT22;10682;50.874;3.656;2023-04-25T01:50:59;8.10;99.90
21047;DHT22;10682;50.874;3.656;2023-04-25T01:53:26;8.10;99.90
21047;DHT22;10682;50.874;3.656;2023-04-25T01:55:53;8.10;99.90
21047;DHT22;10682;50.874;3.656;2023-04-25T01:58:20;8.10;99.90
21047;DHT22;10682;50.874;3.656;2023-04-25T02:00:47;8.00;99.90
21047;DHT22;10682;50.874;3.656;2023-04-25T02:03:14;8.00;99.90
21047;DHT22;10682;50.874;3.656;2023-04-25T02:05:41;8.00;99.90
21047;DHT22;10682;50.874;3.656;2023-04-25T02:08:09;8.00;99.90
21047;DHT22;10682;50.874;3.656;2023-04-25T02:10:36;8.00;99.90
21047;DHT22;10682;50.874;3.656;2023-04-25T02:13:03;8.00;99.90
21047;DHT22;10682;50.874;3.656;2023-04-25T02:15:31;8.00;99.90
21047;DHT22;10682;50.874;3.656;2023-04-25T02:17:59;7.90;99.90
21047;DHT22;10682;50.874;3.656;2023-04-25T02:20:28;8.00;99.90
21047;DHT22;10682;50.874;3.656;2023-04-25T02:22:56;7.90;99.90
21047;DHT22;10682;50.874;3.656;2023-04-25T02:25:23;7.90;99.90
21047;DHT22;10682;50.874;3.656;2023-04-25T02:27:50;7.90;99.90
21047;DHT22;10682;50.874;3.656;2023-04-25T02:30:18;7.90;99.90
21047;DHT22;10682;50.874;3.656;2023-04-25T02:32:45;7.90;99.90
21047;DHT22;10682;50.874;3.656;2023-04-25T02:35:12;7.90;99.90
21047;DHT22;10682;50.874;3.656;2023-04-25T02:37:39;7.80;99.90
21047;DHT22;10682;50.874;3.656;2023-04-25T02:40:07;7.80;99.90
21047;DHT22;10682;50.874;3.656;2023-04-25T02:42:35;7.80;99.90
21047;DHT22;10682;50.874;3.656;2023-04-25T02:45:02;7.70;99.90
21047;DHT22;10682;50.874;3.656;2023-04-25T02:47:30;7.70;99.90
21047;DHT22;10682;50.874;3.656;2023-04-25T02:49:58;7.70;99.90
21047;DHT22;10682;50.874;3.656;2023-04-25T02:52:25;7.70;99.90
21047;DHT22;10682;50.874;3.656;2023-04-25T02:54:52;7.70;99.90
21047;DHT22;10682;50.874;3.656;2023-04-25T02:57:18;7.60;99.90
21047;DHT22;10682;50.874;3.656;2023-04-25T02:59:46;7.60;99.90
21047;DHT22;10682;50.874;3.656;2023-04-25T03:02:13;7.50;99.90
21047;DHT22;10682;50.874;3.656;2023-04-25T03:04:40;7.50;99.90
21047;DHT22;10682;50.874;3.656;2023-04-25T03:07:07;7.50;99.90
21047;DHT22;10682;50.874;3.656;2023-04-25T03:09:34;7.50;99.90
21047;DHT22;10682;50.874;3.656;2023-04-25T03:12:01;7.50;99.90
21047;DHT22;10682;50.874;3.656;2023-04-25T03:14:28;7.40;99.90
21047;DHT22;10682;50.874;3.656;2023-04-25T03:16:55;7.40;99.90
21047;DHT22;10682;50.874;3.656;2023-04-25T03:19:22;7.40;99.90
21047;DHT22;10682;50.874;3.656;2023-04-25T03:21:49;7.40;99.90
21047;DHT22;10682;50.874;3.656;2023-04-25T03:24:16;7.30;99.90
21047;DHT22;10682;50.874;3.656;2023-04-25T03:26:44;7.30;99.90
21047;DHT22;10682;50.874;3.656;2023-04-25T03:29:12;7.30;99.90
21047;DHT22;10682;50.874;3.656;2023-04-25T03:31:38;7.30;99.90
21047;DHT22;10682;50.874;3.656;2023-04-25T03:34:05;7.30;99.90
21047;DHT22;10682;50.874;3.656;2023-04-25T03:36:32;7.30;99.90
21047;DHT22;10682;50.874;3.656;2023-04-25T03:38:59;7.30;99.90
21047;DHT22;10682;50.874;3.656;2023-04-25T03:41:27;7.30;99.90
21047;DHT22;10682;50.874;3.656;2023-04-25T03:43:54;7.30;99.90
21047;DHT22;10682;50.874;3.656;2023-04-25T03:46:21;7.30;99.90
21047;DHT22;10682;50.874;3.656;2023-04-25T03:48:48;7.30;99.90
21047;DHT22;10682;50.874;3.656;2023-04-25T03:51:15;7.20;99.90
21047;DHT22;10682;50.874;3.656;2023-04-25T03:53:42;7.30;99.90
21047;DHT22;10682;50.874;3.656;2023-04-25T03:56:09;7.20;99.90
21047;DHT22;10682;50.874;3.656;2023-04-25T03:58:36;7.20;99.90
21047;DHT22;10682;50.874;3.656;2023-04-25T04:01:03;7.20;99.90
21047;DHT22;10682;50.874;3.656;2023-04-25T04:03:35;7.20;99.90
21047;DHT22;10682;50.874;3.656;2023-04-25T04:06:06;7.30;99.90
21047;DHT22;10682;50.874;3.656;2023-04-25T04:08:34;7.30;99.90
21047;DHT22;10682;50.874;3.656;2023-04-25T04:11:01;7.30;99.90
21047;DHT22;10682;50.874;3.656;2023-04-25T04:13:29;7.20;99.90
21047;DHT22;10682;50.874;3.656;2023-04-25T04:15:56;7.30;99.90
21047;DHT22;10682;50.874;3.656;2023-04-25T04:18:24;7.20;99.90
21047;DHT22;10682;50.874;3.656;2023-04-25T04:20:51;7.20;99.90
21047;DHT22;10682;50.874;3.656;2023-04-25T04:23:19;7.20;99.90
21047;DHT22;10682;50.874;3.656;2023-04-25T04:25:47;7.20;99.90
21047;DHT22;10682;50.874;3.656;2023-04-25T04:28:14;7.20;99.90
21047;DHT22;10682;50.874;3.656;2023-04-25T04:30:42;7.20;99.90
21047;DHT22;10682;50.874;3.656;2023-04-25T04:33:13;7.20;99.90
21047;DHT22;10682;50.874;3.656;2023-04-25T04:35:46;7.20;99.90
21047;DHT22;10682;50.874;3.656;2023-04-25T04:38:13;7.20;99.90
21047;DHT22;10682;50.874;3.656;2023-04-25T04:40:42;7.20;99.90
21047;DHT22;10682;50.874;3.656;2023-04-25T04:43:09;7.20;99.90
21047;DHT22;10682;50.874;3.656;2023-04-25T04:45:37;7.20;99.90
21047;DHT22;10682;50.874;3.656;2023-04-25T04:48:06;7.10;99.90
21047;DHT22;10682;50.874;3.656;2023-04-25T04:50:34;7.10;99.90
21047;DHT22;10682;50.874;3.656;2023-04-25T04:53:03;7.10;99.90
21047;DHT22;10682;50.874;3.656;2023-04-25T04:55:30;7.10;99.90
21047;DHT22;10682;50.874;3.656;2023-04-25T04:57:57;7.10;99.90
21047;DHT22;10682;50.874;3.656;2023-04-25T05:00:24;7.10;99.90
21047;DHT22;10682;50.874;3.656;2023-04-25T05:02:58;7.10;99.90
21047;DHT22;10682;50.874;3.656;2023-04-25T05:05:25;7.20;99.90
21047;DHT22;10682;50.874;3.656;2023-04-25T05:07:52;7.20;99.90
21047;DHT22;10682;50.874;3.656;2023-04-25T05:10:19;7.20;99.90
21047;DHT22;10682;50.874;3.656;2023-04-25T05:12:46;7.20;99.90
21047;DHT22;10682;50.874;3.656;2023-04-25T05:15:14;7.20;99.90
21047;DHT22;10682;50.874;3.656;2023-04-25T05:17:41;7.20;99.90
21047;DHT22;10682;50.874;3.656;2023-04-25T05:20:08;7.20;99.90
21047;DHT22;10682;50.874;3.656;2023-04-25T05:22:36;7.20;99.90
21047;DHT22;10682;50.874;3.656;2023-04-25T05:25:03;7.20;99.90
21047;DHT22;10682;50.874;3.656;2023-04-25T05:27:31;7.20;99.90
21047;DHT22;10682;50.874;3.656;2023-04-25T05:29:58;7.20;99.90
21047;DHT22;10682;50.874;3.656;2023-04-25T05:32:25;7.30;99.90
21047;DHT22;10682;50.874;3.656;2023-04-25T05:34:52;7.30;99.90
21047;DHT22;10682;50.874;3.656;2023-04-25T05:37:19;7.30;99.90
21047;DHT22;10682;50.874;3.656;2023-04-25T05:39:47;7.40;99.90
21047;DHT22;10682;50.874;3.656;2023-04-25T05:42:14;7.40;99.90
21047;DHT22;10682;50.874;3.656;2023-04-25T05:44:41;7.50;99.90
21047;DHT22;10682;50.874;3.656;2023-04-25T05:47:08;7.60;99.90
21047;DHT22;10682;50.874;3.656;2023-04-25T05:49:35;7.70;99.90
21047;DHT22;10682;50.874;3.656;2023-04-25T05:52:02;7.70;99.90
21047;DHT22;10682;50.874;3.656;2023-04-25T05:54:29;7.80;99.90
21047;DHT22;10682;50.874;3.656;2023-04-25T05:56:57;7.90;99.90
21047;DHT22;10682;50.874;3.656;2023-04-25T05:59:24;8.00;99.90
21047;DHT22;10682;50.874;3.656;2023-04-25T06:01:51;8.00;99.90
21047;DHT22;10682;50.874;3.656;2023-04-25T06:04:18;8.00;99.90
21047;DHT22;10682;50.874;3.656;2023-04-25T06:06:46;8.00;99.90
21047;DHT22;10682;50.874;3.656;2023-04-25T06:09:13;8.00;99.90
21047;DHT22;10682;50.874;3.656;2023-04-25T06:11:40;8.00;99.90
21047;DHT22;10682;50.874;3.656;2023-04-25T06:14:07;8.00;99.90
21047;DHT22;10682;50.874;3.656;2023-04-25T06:16:34;8.00;99.90
21047;DHT22;10682;50.874;3.656;2023-04-25T06:19:01;8.10;99.90
21047;DHT22;10682;50.874;3.656;2023-04-25T06:21:28;8.10;99.90
21047;DHT22;10682;50.874;3.656;2023-04-25T06:23:55;8.20;99.90
21047;DHT22;10682;50.874;3.656;2023-04-25T06:26:22;8.20;99.90
21047;DHT22;10682;50.874;3.656;2023-04-25T06:28:49;8.30;99.90
21047;DHT22;10682;50.874;3.656;2023-04-25T06:31:16;8.40;99.90
21047;DHT22;10682;50.874;3.656;2023-04-25T06:33:43;8.40;99.90
21047;DHT22;10682;50.874;3.656;2023-04-25T06:36:10;8.40;99.90
21047;DHT22;10682;50.874;3.656;2023-04-25T06:38:37;8.50;99.90
21047;DHT22;10682;50.874;3.656;2023-04-25T06:41:04;8.50;99.90
21047;DHT22;10682;50.874;3.656;2023-04-25T06:43:31;8.60;99.90
21047;DHT22;10682;50.874;3.656;2023-04-25T06:46:00;8.60;99.90
21047;DHT22;10682;50.874;3.656;2023-04-25T06:48:27;8.60;99.90
21047;DHT22;10682;50.874;3.656;2023-04-25T06:50:54;8.60;99.90
21047;DHT22;10682;50.874;3.656;2023-04-25T06:53:21;8.70;99.90
21047;DHT22;10682;50.874;3.656;2023-04-25T06:55:48;8.90;99.90
21047;DHT22;10682;50.874;3.656;2023-04-25T06:58:15;9.00;99.90
21047;DHT22;10682;50.874;3.656;2023-04-25T07:00:42;9.10;99.90
21047;DHT22;10682;50.874;3.656;2023-04-25T07:03:09;9.20;99.90
21047;DHT22;10682;50.874;3.656;2023-04-25T07:05:37;9.30;99.90
21047;DHT22;10682;50.874;3.656;2023-04-25T07:08:04;9.30;99.90
21047;DHT22;10682;50.874;3.656;2023-04-25T07:10:31;9.30;99.90
21047;DHT22;10682;50.874;3.656;2023-04-25T07:12:58;9.30;99.90
21047;DHT22;10682;50.874;3.656;2023-04-25T07:15:25;9.40;99.90
21047;DHT22;10682;50.874;3.656;2023-04-25T07:17:52;9.40;99.90
21047;DHT22;10682;50.874;3.656;2023-04-25T07:20:19;9.40;99.90
21047;DHT22;10682;50.874;3.656;2023-04-25T07:22:46;9.40;99.90
21047;DHT22;10682;50.874;3.656;2023-04-25T07:25:13;9.50;99.90
21047;DHT22;10682;50.874;3.656;2023-04-25T07:27:40;9.50;99.90
21047;DHT22;10682;50.874;3.656;2023-04-25T07:30:08;9.50;99.90
21047;DHT22;10682;50.874;3.656;2023-04-25T07:32:35;9.50;99.90
21047;DHT22;10682;50.874;3.656;2023-04-25T07:35:03;9.40;99.90
21047;DHT22;10682;50.874;3.656;2023-04-25T07:37:30;9.60;99.90
21047;DHT22;10682;50.874;3.656;2023-04-25T07:39:57;9.80;99.90
21047;DHT22;10682;50.874;3.656;2023-04-25T07:42:24;10.10;99.90
21047;DHT22;10682;50.874;3.656;2023-04-25T07:44:51;10.30;99.90
21047;DHT22;10682;50.874;3.656;2023-04-25T07:47:18;10.60;99.90
21047;DHT22;10682;50.874;3.656;2023-04-25T07:49:48;10.80;99.90
21047;DHT22;10682;50.874;3.656;2023-04-25T07:52:15;10.60;99.90
21047;DHT22;10682;50.874;3.656;2023-04-25T07:54:42;10.90;99.90
21047;DHT22;10682;50.874;3.656;2023-04-25T07:57:09;11.30;99.90
21047;DHT22;10682;50.874;3.656;2023-04-25T07:59:36;12.00;99.90
21047;DHT22;10682;50.874;3.656;2023-04-25T08:02:03;13.00;99.90
21047;DHT22;10682;50.874;3.656;2023-04-25T08:04:30;13.30;99.90
21047;DHT22;10682;50.874;3.656;2023-04-25T08:06:57;13.30;99.90
21047;DHT22;10682;50.874;3.656;2023-04-25T08:09:24;13.30;99.90
21047;DHT22;10682;50.874;3.656;2023-04-25T08:11:51;13.60;99.90
21047;DHT22;10682;50.874;3.656;2023-04-25T08:14:18;13.80;99.90
21047;DHT22;10682;50.874;3.656;2023-04-25T08:16:45;13.70;99.90
21047;DHT22;10682;50.874;3.656;2023-04-25T08:19:12;14.00;99.90
21047;DHT22;10682;50.874;3.656;2023-04-25T08:21:39;14.00;99.90
21047;DHT22;10682;50.874;3.656;2023-04-25T08:24:06;14.30;99.90
21047;DHT22;10682;50.874;3.656;2023-04-25T08:26:33;14.40;99.90
21047;DHT22;10682;50.874;3.656;2023-04-25T08:29:01;14.70;99.90
21047;DHT22;10682;50.874;3.656;2023-04-25T08:31:28;15.10;99.90
21047;DHT22;10682;50.874;3.656;2023-04-25T08:33:55;15.00;99.90
21047;DHT22;10682;50.874;3.656;2023-04-25T08:36:22;14.50;99.90
21047;DHT22;10682;50.874;3.656;2023-04-25T08:39:05;13.80;99.90
21047;DHT22;10682;50.874;3.656;2023-04-25T08:41:41;12.80;99.90
21047;DHT22;10682;50.874;3.656;2023-04-25T08:44:11;11.90;99.90
21047;DHT22;10682;50.874;3.656;2023-04-25T08:46:41;11.50;99.90
21047;DHT22;10682;50.874;3.656;2023-04-25T08:49:09;11.40;99.90
21047;DHT22;10682;50.874;3.656;2023-04-25T08:51:39;11.10;99.90
21047;DHT22;10682;50.874;3.656;2023-04-25T08:54:12;11.30;99.90
21047;DHT22;10682;50.874;3.656;2023-04-25T08:57:02;11.20;99.90
21047;DHT22;10682;50.874;3.656;2023-04-25T08:59:32;11.30;99.90
21047;DHT22;10682;50.874;3.656;2023-04-25T09:02:00;11.30;99.90
21047;DHT22;10682;50.874;3.656;2023-04-25T09:04:29;11.50;99.90
21047;DHT22;10682;50.874;3.656;2023-04-25T09:06:57;11.50;99.90
21047;DHT22;10682;50.874;3.656;2023-04-25T09:09:25;11.70;99.90
21047;DHT22;10682;50.874;3.656;2023-04-25T09:11:54;11.80;99.90
21047;DHT22;10682;50.874;3.656;2023-04-25T09:14:24;11.90;99.90
21047;DHT22;10682;50.874;3.656;2023-04-25T09:19:24;12.00;99.90
21047;DHT22;10682;50.874;3.656;2023-04-25T09:22:09;11.80;99.90
21047;DHT22;10682;50.874;3.656;2023-04-25T09:24:41;12.10;99.90
21047;DHT22;10682;50.874;3.656;2023-04-25T09:27:13;12.60;99.90
21047;DHT22;10682;50.874;3.656;2023-04-25T09:29:44;13.20;99.90
21047;DHT22;10682;50.874;3.656;2023-04-25T09:32:21;13.40;99.90
21047;DHT22;10682;50.874;3.656;2023-04-25T09:34:54;13.60;99.90
21047;DHT22;10682;50.874;3.656;2023-04-25T09:37:27;14.00;99.90
21047;DHT22;10682;50.874;3.656;2023-04-25T09:39:57;14.30;99.90
21047;DHT22;10682;50.874;3.656;2023-04-25T09:42:33;14.70;99.90
21047;DHT22;10682;50.874;3.656;2023-04-25T09:45:02;14.60;99.90
21047;DHT22;10682;50.874;3.656;2023-04-25T09:47:30;14.20;99.90
21047;DHT22;10682;50.874;3.656;2023-04-25T09:49:58;13.60;99.90
21047;DHT22;10682;50.874;3.656;2023-04-25T09:52:25;13.10;99.90
21047;DHT22;10682;50.874;3.656;2023-04-25T09:54:52;12.70;99.90
21047;DHT22;10682;50.874;3.656;2023-04-25T09:57:22;12.60;99.90
21047;DHT22;10682;50.874;3.656;2023-04-25T09:59:52;13.20;99.90
21047;DHT22;10682;50.874;3.656;2023-04-25T10:02:25;13.50;99.90
21047;DHT22;10682;50.874;3.656;2023-04-25T10:04:55;13.40;99.90
21047;DHT22;10682;50.874;3.656;2023-04-25T10:07:25;13.30;99.90
21047;DHT22;10682;50.874;3.656;2023-04-25T10:10:04;13.50;99.90
21047;DHT22;10682;50.874;3.656;2023-04-25T10:12:33;13.90;99.90
21047;DHT22;10682;50.874;3.656;2023-04-25T10:15:01;14.20;99.90
21047;DHT22;10682;50.874;3.656;2023-04-25T10:17:30;14.60;99.90
21047;DHT22;10682;50.874;3.656;2023-04-25T10:19:58;14.90;99.90
21047;DHT22;10682;50.874;3.656;2023-04-25T10:22:34;14.90;99.90
21047;DHT22;10682;50.874;3.656;2023-04-25T10:25:03;14.60;99.90
21047;DHT22;10682;50.874;3.656;2023-04-25T10:27:31;14.00;99.90
21047;DHT22;10682;50.874;3.656;2023-04-25T10:30:03;13.60;99.90
21047;DHT22;10682;50.874;3.656;2023-04-25T10:32:33;13.10;99.90
21047;DHT22;10682;50.874;3.656;2023-04-25T10:35:17;12.60;99.90
21047;DHT22;10682;50.874;3.656;2023-04-25T10:38:04;12.20;99.90
21047;DHT22;10682;50.874;3.656;2023-04-25T10:40:39;11.70;99.90
21047;DHT22;10682;50.874;3.656;2023-04-25T10:46:01;11.00;99.90
21047;DHT22;10682;50.874;3.656;2023-04-25T10:48:30;11.10;99.90
21047;DHT22;10682;50.874;3.656;2023-04-25T10:51:24;11.00;99.90
21047;DHT22;10682;50.874;3.656;2023-04-25T10:54:07;11.10;99.90
21047;DHT22;10682;50.874;3.656;2023-04-25T10:56:41;11.20;99.90
21047;DHT22;10682;50.874;3.656;2023-04-25T10:59:12;11.40;99.90
21047;DHT22;10682;50.874;3.656;2023-04-25T11:01:53;11.60;99.90
21047;DHT22;10682;50.874;3.656;2023-04-25T11:04:28;11.80;99.90
21047;DHT22;10682;50.874;3.656;2023-04-25T11:09:35;12.00;99.90
21047;DHT22;10682;50.874;3.656;2023-04-25T11:12:03;12.00;99.90
21047;DHT22;10682;50.874;3.656;2023-04-25T11:14:31;12.10;99.90
21047;DHT22;10682;50.874;3.656;2023-04-25T11:16:59;12.30;99.90
21047;DHT22;10682;50.874;3.656;2023-04-25T11:19:28;12.40;99.90
21047;DHT22;10682;50.874;3.656;2023-04-25T11:22:00;13.00;99.90
21047;DHT22;10682;50.874;3.656;2023-04-25T11:24:32;13.60;99.90
21047;DHT22;10682;50.874;3.656;2023-04-25T11:27:02;13.80;99.90
21047;DHT22;10682;50.874;3.656;2023-04-25T11:29:31;13.50;99.90
21047;DHT22;10682;50.874;3.656;2023-04-25T11:31:59;12.70;99.90
21047;DHT22;10682;50.874;3.656;2023-04-25T11:34:28;12.60;99.90
21047;DHT22;10682;50.874;3.656;2023-04-25T11:37:00;13.20;99.90
21047;DHT22;10682;50.874;3.656;2023-04-25T11:39:30;13.90;99.90
21047;DHT22;10682;50.874;3.656;2023-04-25T11:41:57;14.50;99.90
21047;DHT22;10682;50.874;3.656;2023-04-25T11:44:26;15.10;99.90
21047;DHT22;10682;50.874;3.656;2023-04-25T11:46:53;15.60;99.90
21047;DHT22;10682;50.874;3.656;2023-04-25T11:49:20;15.30;99.90
21047;DHT22;10682;50.874;3.656;2023-04-25T11:51:48;15.20;99.90
21047;DHT22;10682;50.874;3.656;2023-04-25T11:54:16;15.20;99.90
21047;DHT22;10682;50.874;3.656;2023-04-25T11:56:46;15.20;99.90
21047;DHT22;10682;50.874;3.656;2023-04-25T11:59:13;15.50;99.90
21047;DHT22;10682;50.874;3.656;2023-04-25T12:01:41;15.30;99.90
21047;DHT22;10682;50.874;3.656;2023-04-25T12:04:16;14.70;99.90
21047;DHT22;10682;50.874;3.656;2023-04-25T12:06:48;14.20;99.90
21047;DHT22;10682;50.874;3.656;2023-04-25T12:09:23;14.30;99.90
21047;DHT22;10682;50.874;3.656;2023-04-25T12:11:56;14.90;99.90
21047;DHT22;10682;50.874;3.656;2023-04-25T12:14:26;15.00;99.90
21047;DHT22;10682;50.874;3.656;2023-04-25T12:16:57;14.50;99.90
21047;DHT22;10682;50.874;3.656;2023-04-25T12:19:26;14.00;99.90
21047;DHT22;10682;50.874;3.656;2023-04-25T12:22:00;13.60;99.90
21047;DHT22;10682;50.874;3.656;2023-04-25T12:24:29;13.00;99.90
21047;DHT22;10682;50.874;3.656;2023-04-25T12:27:04;12.60;99.90
21047;DHT22;10682;50.874;3.656;2023-04-25T12:29:33;12.60;99.90
21047;DHT22;10682;50.874;3.656;2023-04-25T12:32:15;12.70;99.90
21047;DHT22;10682;50.874;3.656;2023-04-25T12:34:43;13.10;99.90
21047;DHT22;10682;50.874;3.656;2023-04-25T12:37:10;13.30;99.90
21047;DHT22;10682;50.874;3.656;2023-04-25T12:39:37;13.40;99.90
21047;DHT22;10682;50.874;3.656;2023-04-25T12:42:05;13.50;99.90
21047;DHT22;10682;50.874;3.656;2023-04-25T12:44:35;14.10;99.90
21047;DHT22;10682;50.874;3.656;2023-04-25T12:47:03;14.50;99.90
21047;DHT22;10682;50.874;3.656;2023-04-25T12:49:30;15.00;99.90
21047;DHT22;10682;50.874;3.656;2023-04-25T12:51:57;15.40;99.90
21047;DHT22;10682;50.874;3.656;2023-04-25T12:54:24;15.70;99.90
21047;DHT22;10682;50.874;3.656;2023-04-25T12:56:52;16.10;99.90
21047;DHT22;10682;50.874;3.656;2023-04-25T12:59:19;16.50;99.90
21047;DHT22;10682;50.874;3.656;2023-04-25T13:01:47;17.00;99.90
21047;DHT22;10682;50.874;3.656;2023-04-25T13:04:15;17.10;99.90
21047;DHT22;10682;50.874;3.656;2023-04-25T13:06:43;16.90;99.90
21047;DHT22;10682;50.874;3.656;2023-04-25T13:09:10;16.30;99.90
21047;DHT22;10682;50.874;3.656;2023-04-25T13:11:39;15.00;99.90
21047;DHT22;10682;50.874;3.656;2023-04-25T13:14:07;14.20;99.90
21047;DHT22;10682;50.874;3.656;2023-04-25T13:16:34;13.70;99.90
21047;DHT22;10682;50.874;3.656;2023-04-25T13:19:01;13.30;99.90
21047;DHT22;10682;50.874;3.656;2023-04-25T13:21:30;13.00;99.90
21047;DHT22;10682;50.874;3.656;2023-04-25T13:24:00;12.70;99.90
21047;DHT22;10682;50.874;3.656;2023-04-25T13:26:27;12.60;99.90
21047;DHT22;10682;50.874;3.656;2023-04-25T13:28:54;12.90;99.90
21047;DHT22;10682;50.874;3.656;2023-04-25T13:31:21;12.90;99.90
21047;DHT22;10682;50.874;3.656;2023-04-25T13:33:48;12.90;99.90
21047;DHT22;10682;50.874;3.656;2023-04-25T13:36:15;12.80;99.90
21047;DHT22;10682;50.874;3.656;2023-04-25T13:38:42;12.60;99.90
21047;DHT22;10682;50.874;3.656;2023-04-25T13:41:11;12.30;99.90
21047;DHT22;10682;50.874;3.656;2023-04-25T13:43:45;12.50;99.90
21047;DHT22;10682;50.874;3.656;2023-04-25T13:46:14;12.40;99.90
21047;DHT22;10682;50.874;3.656;2023-04-25T13:49:02;12.70;99.90
21047;DHT22;10682;50.874;3.656;2023-04-25T13:51:39;13.50;99.90
21047;DHT22;10682;50.874;3.656;2023-04-25T13:54:06;14.10;99.90
21047;DHT22;10682;50.874;3.656;2023-04-25T13:56:34;14.50;99.90
21047;DHT22;10682;50.874;3.656;2023-04-25T13:59:01;15.00;99.90
21047;DHT22;10682;50.874;3.656;2023-04-25T14:01:28;15.30;99.90
21047;DHT22;10682;50.874;3.656;2023-04-25T14:03:57;15.60;99.90
21047;DHT22;10682;50.874;3.656;2023-04-25T14:06:24;15.60;99.90
21047;DHT22;10682;50.874;3.656;2023-04-25T14:08:51;15.10;99.90
21047;DHT22;10682;50.874;3.656;2023-04-25T14:11:18;14.30;99.90
21047;DHT22;10682;50.874;3.656;2023-04-25T14:13:46;14.00;99.90
21047;DHT22;10682;50.874;3.656;2023-04-25T14:16:15;13.70;99.90
21047;DHT22;10682;50.874;3.656;2023-04-25T14:18:42;13.40;99.90
21047;DHT22;10682;50.874;3.656;2023-04-25T14:21:09;13.20;99.90
21047;DHT22;10682;50.874;3.656;2023-04-25T14:23:37;12.90;99.90
21047;DHT22;10682;50.874;3.656;2023-04-25T14:26:04;13.20;99.90
21047;DHT22;10682;50.874;3.656;2023-04-25T14:28:31;13.40;99.90
21047;DHT22;10682;50.874;3.656;2023-04-25T14:30:58;13.50;99.90
21047;DHT22;10682;50.874;3.656;2023-04-25T14:33:26;13.10;99.90
21047;DHT22;10682;50.874;3.656;2023-04-25T14:35:53;12.70;99.90
21047;DHT22;10682;50.874;3.656;2023-04-25T14:38:21;12.50;99.90
21047;DHT22;10682;50.874;3.656;2023-04-25T14:40:50;12.20;99.90
21047;DHT22;10682;50.874;3.656;2023-04-25T14:43:17;12.00;99.90
21047;DHT22;10682;50.874;3.656;2023-04-25T14:45:44;12.00;99.90
21047;DHT22;10682;50.874;3.656;2023-04-25T14:48:11;12.30;99.90
21047;DHT22;10682;50.874;3.656;2023-04-25T14:50:39;12.80;99.90
21047;DHT22;10682;50.874;3.656;2023-04-25T14:53:06;13.10;99.90
21047;DHT22;10682;50.874;3.656;2023-04-25T14:55:33;13.20;99.90
21047;DHT22;10682;50.874;3.656;2023-04-25T14:58:00;13.30;99.90
21047;DHT22;10682;50.874;3.656;2023-04-25T15:00:27;13.30;99.90
21047;DHT22;10682;50.874;3.656;2023-04-25T15:02:55;13.50;99.90
21047;DHT22;10682;50.874;3.656;2023-04-25T15:05:22;13.70;99.90
21047;DHT22;10682;50.874;3.656;2023-04-25T15:07:50;13.60;99.90
21047;DHT22;10682;50.874;3.656;2023-04-25T15:10:18;13.50;99.90
21047;DHT22;10682;50.874;3.656;2023-04-25T15:12:45;13.30;99.90
21047;DHT22;10682;50.874;3.656;2023-04-25T15:15:14;13.30;99.90
21047;DHT22;10682;50.874;3.656;2023-04-25T15:17:51;13.40;99.90
21047;DHT22;10682;50.874;3.656;2023-04-25T15:20:23;13.00;99.90
21047;DHT22;10682;50.874;3.656;2023-04-25T15:22:51;12.60;99.90
21047;DHT22;10682;50.874;3.656;2023-04-25T15:25:18;12.20;99.90
21047;DHT22;10682;50.874;3.656;2023-04-25T15:27:45;12.00;99.90
21047;DHT22;10682;50.874;3.656;2023-04-25T15:30:16;11.90;99.90
21047;DHT22;10682;50.874;3.656;2023-04-25T15:32:44;12.10;99.90
21047;DHT22;10682;50.874;3.656;2023-04-25T15:35:13;12.50;99.90
21047;DHT22;10682;50.874;3.656;2023-04-25T15:37:41;12.70;99.90
21047;DHT22;10682;50.874;3.656;2023-04-25T15:42:41;12.80;99.90
21047;DHT22;10682;50.874;3.656;2023-04-25T15:45:14;12.80;99.90
21047;DHT22;10682;50.874;3.656;2023-04-25T15:47:43;12.70;99.90
21047;DHT22;10682;50.874;3.656;2023-04-25T15:50:11;12.50;99.90
21047;DHT22;10682;50.874;3.656;2023-04-25T15:52:40;12.40;99.90
21047;DHT22;10682;50.874;3.656;2023-04-25T15:55:08;12.30;99.90